Terminal Aerodrome Forecast
Issued by NWS St Louis, MO

Home | Current Version | Previous Version | Text Only | Print | Product List | Glossary On
Versions: 1 2 3 4 5 6 7 8 9 10 11 12 13 14 15 16 17 18 19 20 21 22 23 24 25 26 27 28 29 30 31
000
FTUS43 KLSX 261500 AAA
TAFSTL
TAF AMD
KSTL 261512Z 2615/2718 17010KT P6SM BKN250
     FM261800 18012KT P6SM SCT025 BKN250
      TEMPO 2620/2624 BKN025
     FM270000 18010KT P6SM BKN025
     FM270900 18010KT P6SM OVC012
     FM271400 19010KT 5SM -RA OVC010=

USA.gov is the U.S. government's official web portal to all federal, state and local government web resources and services.